Time;durP1;ratioP1;P1;durP2;ratioP2;P2;SDS_P1;SDS_P2;PMS_P1;PMS_P2;Temp;Humidity;BMP_temperature;BMP_pressure;BME280_temperature;BME280_humidity;BME280_pressure;Samples;Min_cycle;Max_cycle;Signal;HPM_P1;HPM_P2
2021/12/04 00:02:17;;;;;;;2.07;1.87;;;2.20;99.90;;;;;;5016812;28;20677;-77
2021/12/04 00:04:47;;;;;;;2.80;2.20;;;2.10;99.90;;;;;;5017007;28;20200;-76
2021/12/04 00:07:14;;;;;;;3.10;2.07;;;2.10;99.90;;;;;;5034419;28;20166;-76
2021/12/04 00:09:43;;;;;;;2.33;2.13;;;2.10;99.90;;;;;;5034373;28;20186;-76
2021/12/04 00:12:08;;;;;;;2.43;2.17;;;2.10;99.90;;;;;;5034210;28;20194;-76
2021/12/04 00:14:36;;;;;;;3.13;2.27;;;2.10;99.90;;;;;;5034506;28;20197;-76
2021/12/04 00:17:03;;;;;;;2.17;1.83;;;2.00;99.90;;;;;;5034372;28;20220;-76
2021/12/04 00:19:29;;;;;;;2.30;2.10;;;2.00;99.90;;;;;;5022421;28;20261;-76
2021/12/04 00:21:56;;;;;;;3.63;2.10;;;2.00;99.90;;;;;;5033899;28;20206;-76
2021/12/04 00:24:22;;;;;;;2.80;2.20;;;2.00;99.90;;;;;;5034114;28;20258;-76
2021/12/04 00:26:50;;;;;;;3.60;2.40;;;2.10;99.90;;;;;;5018939;28;20206;-76
2021/12/04 00:29:16;;;;;;;2.63;2.40;;;2.10;99.90;;;;;;5033981;28;20182;-76
2021/12/04 00:31:48;;;;;;;3.13;2.00;;;2.00;99.90;;;;;;5033833;28;20162;-77
2021/12/04 00:34:14;;;;;;;3.67;2.57;;;2.00;99.90;;;;;;5016260;28;20225;-74
2021/12/04 00:50:06;;;;;;;4.67;2.83;;;1.80;99.90;;;;;;5033730;28;20197;-77
2021/12/04 00:52:31;;;;;;;3.50;2.93;;;1.80;99.90;;;;;;5025125;28;20195;-76
2021/12/04 00:54:57;;;;;;;3.30;2.80;;;1.70;99.90;;;;;;5008894;28;20177;-77
2021/12/04 00:57:23;;;;;;;4.57;3.00;;;2.00;99.90;;;;;;5033634;28;20247;-76
2021/12/04 00:59:48;;;;;;;3.80;3.37;;;1.70;99.90;;;;;;5016016;28;20175;-77
2021/12/04 01:02:17;;;;;;;3.57;3.20;;;1.70;99.90;;;;;;5033588;28;20199;-77
2021/12/04 01:04:43;;;;;;;5.03;3.20;;;1.70;99.90;;;;;;5033631;28;20174;-77
2021/12/04 01:07:09;;;;;;;4.80;3.20;;;1.60;99.90;;;;;;5033873;28;20193;-77
2021/12/04 01:09:36;;;;;;;4.70;3.17;;;1.70;99.90;;;;;;5016111;28;20662;-76
2021/12/04 01:12:02;;;;;;;3.20;2.90;;;1.70;99.90;;;;;;5033701;28;20280;-76
2021/12/04 01:14:29;;;;;;;3.83;3.53;;;1.60;99.90;;;;;;5033827;28;20189;-76
2021/12/04 01:16:56;;;;;;;3.97;3.30;;;1.60;99.90;;;;;;5033667;28;20171;-77
2021/12/04 01:19:22;;;;;;;4.20;3.80;;;1.80;99.90;;;;;;5024921;28;20174;-77
2021/12/04 01:21:49;;;;;;;4.07;3.63;;;1.60;99.90;;;;;;5015965;28;20601;-76
2021/12/04 01:24:15;;;;;;;3.70;3.40;;;1.60;99.90;;;;;;5036387;28;20180;-77
2021/12/04 01:26:42;;;;;;;3.80;3.50;;;1.60;99.90;;;;;;5037180;28;20179;-77
2021/12/04 01:29:07;;;;;;;3.83;3.53;;;1.40;99.90;;;;;;5033894;28;20205;-77
2021/12/04 01:31:33;;;;;;;3.80;3.23;;;1.70;99.90;;;;;;5024475;28;20558;-76
2021/12/04 01:33:59;;;;;;;4.27;3.87;;;1.60;99.90;;;;;;5034479;28;20249;-77
2021/12/04 01:36:25;;;;;;;4.30;3.90;;;1.60;99.90;;;;;;5034216;28;20178;-77
2021/12/04 01:38:51;;;;;;;4.17;3.77;;;1.60;99.90;;;;;;5034314;28;20178;-77
2021/12/04 01:41:17;;;;;;;5.33;4.30;;;1.80;99.90;;;;;;5017427;28;20266;-77
2021/12/04 01:43:44;;;;;;;4.80;4.30;;;1.50;99.90;;;;;;5016645;28;20191;-77
2021/12/04 01:46:09;;;;;;;4.43;4.03;;;1.50;99.90;;;;;;5034483;28;20174;-77
2021/12/04 01:48:35;;;;;;;4.57;4.17;;;1.60;99.90;;;;;;5036188;28;20248;-77
2021/12/04 01:51:01;;;;;;;4.23;3.83;;;1.60;99.90;;;;;;5039236;28;20255;-77
2021/12/04 01:53:27;;;;;;;4.33;3.93;;;1.60;99.90;;;;;;5038411;28;20188;-77
2021/12/04 01:55:55;;;;;;;4.83;4.43;;;2.30;99.90;;;;;;5039059;28;20646;-77
2021/12/04 01:58:21;;;;;;;4.30;3.90;;;1.60;99.90;;;;;;5038920;28;20168;-77
2021/12/04 02:00:47;;;;;;;4.30;4.00;;;1.60;99.90;;;;;;5020646;28;20178;-77
2021/12/04 02:03:13;;;;;;;4.60;4.20;;;1.60;99.90;;;;;;5039031;28;20277;-77
2021/12/04 02:05:41;;;;;;;5.00;4.60;;;1.60;99.90;;;;;;5039075;28;20189;-77
2021/12/04 02:08:08;;;;;;;3.97;3.67;;;1.60;99.90;;;;;;5021335;28;20206;-77
2021/12/04 02:10:35;;;;;;;4.97;4.57;;;1.60;99.90;;;;;;5038647;28;20171;-78
2021/12/04 02:13:01;;;;;;;4.70;4.30;;;1.60;99.90;;;;;;5038668;28;20191;-77
2021/12/04 02:15:27;;;;;;;4.90;4.50;;;1.60;99.90;;;;;;5021100;28;20220;-77
2021/12/04 02:17:53;;;;;;;4.47;4.13;;;1.90;99.90;;;;;;5038794;28;20303;-77
2021/12/04 02:20:22;;;;;;;4.47;4.07;;;1.70;99.90;;;;;;5004146;28;20175;-77
2021/12/04 02:22:48;;;;;;;4.30;4.00;;;1.70;99.90;;;;;;5038713;28;20213;-77
2021/12/04 02:25:15;;;;;;;4.30;4.00;;;1.60;99.90;;;;;;5038625;28;20189;-76
2021/12/04 02:27:41;;;;;;;4.73;4.33;;;1.70;99.90;;;;;;5020912;28;20208;-77
2021/12/04 02:30:13;;;;;;;4.17;3.87;;;1.60;99.90;;;;;;5021327;28;20194;-77
2021/12/04 02:32:39;;;;;;;5.07;4.57;;;1.60;99.90;;;;;;5020638;28;20691;-77
2021/12/04 02:35:08;;;;;;;4.83;4.43;;;1.60;99.90;;;;;;5021218;28;20583;-77
2021/12/04 02:37:35;;;;;;;4.67;4.27;;;1.60;99.90;;;;;;5038413;28;20162;-77
2021/12/04 02:40:06;;;;;;;5.13;4.73;;;1.60;99.90;;;;;;5038048;28;20185;-77
2021/12/04 02:42:32;;;;;;;5.23;4.73;;;1.60;99.90;;;;;;5020602;28;20191;-77
2021/12/04 02:45:02;;;;;;;4.80;4.40;;;1.60;99.90;;;;;;5038502;28;20696;-76
2021/12/04 02:47:28;;;;;;;5.37;4.90;;;1.60;99.90;;;;;;5038586;28;20175;-77
2021/12/04 02:49:54;;;;;;;4.73;4.33;;;1.60;99.90;;;;;;5038023;28;20190;-77
2021/12/04 02:52:22;;;;;;;4.63;4.23;;;1.60;99.90;;;;;;5038211;28;20190;-77
2021/12/04 02:54:49;;;;;;;4.90;4.50;;;1.60;99.90;;;;;;5037924;28;20193;-77
2021/12/04 02:57:16;;;;;;;5.00;4.60;;;1.60;99.90;;;;;;5037695;28;20216;-77
2021/12/04 02:59:43;;;;;;;4.80;4.40;;;1.60;99.90;;;;;;5019030;28;20222;-76
2021/12/04 03:02:17;;;;;;;4.67;4.27;;;1.60;99.90;;;;;;5011753;28;20202;-78
2021/12/04 03:04:45;;;;;;;4.67;4.27;;;1.70;99.90;;;;;;5023465;28;20170;-77
2021/12/04 03:07:12;;;;;;;4.23;3.93;;;1.70;99.90;;;;;;5016874;28;20175;-77
2021/12/04 03:09:37;;;;;;;4.87;4.03;;;1.70;99.90;;;;;;5035942;28;20269;-77
2021/12/04 03:12:08;;;;;;;5.27;4.77;;;1.70;99.90;;;;;;5036466;28;20202;-77
2021/12/04 03:14:34;;;;;;;4.70;4.30;;;1.60;99.90;;;;;;5036644;28;20653;-77
2021/12/04 03:17:00;;;;;;;5.07;4.63;;;1.60;99.90;;;;;;5018039;28;20166;-77
2021/12/04 03:19:26;;;;;;;5.17;4.67;;;1.70;99.90;;;;;;5027384;28;20174;-76
2021/12/04 03:21:53;;;;;;;4.60;4.20;;;1.70;99.90;;;;;;5017967;28;20760;-76
2021/12/04 03:24:19;;;;;;;4.80;4.40;;;1.70;99.90;;;;;;5018591;28;20609;-77
2021/12/04 03:26:49;;;;;;;5.00;4.50;;;1.70;99.90;;;;;;5037805;28;20166;-76
2021/12/04 03:29:18;;;;;;;4.97;4.57;;;1.70;99.90;;;;;;5034549;28;20187;-75
2021/12/04 03:42:26;;;;;;;4.13;3.83;;;1.80;99.90;;;;;;5037994;28;20201;-77
2021/12/04 03:44:51;;;;;;;3.90;3.60;;;1.90;99.90;;;;;;5020550;28;20293;-77
2021/12/04 03:47:19;;;;;;;4.10;3.70;;;1.80;99.90;;;;;;5037938;28;20207;-76
2021/12/04 03:49:45;;;;;;;3.80;3.50;;;3.00;99.90;;;;;;5019136;28;20228;-77
2021/12/04 03:52:11;;;;;;;3.93;3.53;;;1.90;99.90;;;;;;5037408;28;20194;-77
2021/12/04 03:54:37;;;;;;;4.20;3.90;;;1.90;99.90;;;;;;5037412;28;20680;-77
2021/12/04 03:57:04;;;;;;;4.33;3.93;;;2.00;99.90;;;;;;5018615;28;20182;-77
2021/12/04 03:59:36;;;;;;;3.70;3.40;;;1.90;99.90;;;;;;5036065;28;20529;-77
2021/12/04 04:02:06;;;;;;;4.30;4.00;;;2.00;99.90;;;;;;5034147;28;20297;-77
2021/12/04 04:04:32;;;;;;;3.90;3.60;;;1.90;99.90;;;;;;5016584;28;20185;-76
2021/12/04 04:06:59;;;;;;;3.73;3.43;;;2.00;99.90;;;;;;5034342;28;20183;-76
2021/12/04 04:09:25;;;;;;;3.97;3.67;;;2.00;99.90;;;;;;5033993;28;20227;-77
2021/12/04 04:11:51;;;;;;;3.97;3.67;;;2.00;99.90;;;;;;5034074;28;20276;-77
2021/12/04 04:14:17;;;;;;;3.80;3.50;;;2.00;99.90;;;;;;5034047;28;20536;-76
2021/12/04 04:16:42;;;;;;;4.17;3.77;;;3.00;99.90;;;;;;5034336;28;20576;-76
2021/12/04 04:19:09;;;;;;;4.80;4.33;;;2.10;99.90;;;;;;5025250;28;20175;-77
2021/12/04 04:21:39;;;;;;;4.80;4.40;;;2.00;99.90;;;;;;5033767;28;20186;-77
2021/12/04 04:24:13;;;;;;;4.73;4.33;;;2.00;99.90;;;;;;5033844;28;20232;-76
2021/12/04 04:26:39;;;;;;;3.90;3.60;;;2.10;99.90;;;;;;5034102;28;20660;-77
2021/12/04 04:29:06;;;;;;;4.77;4.37;;;2.10;99.90;;;;;;5033737;28;20277;-77
2021/12/04 04:31:33;;;;;;;4.77;4.37;;;2.10;99.90;;;;;;5033563;28;20219;-76
2021/12/04 04:34:03;;;;;;;4.23;3.93;;;2.20;99.90;;;;;;5015988;28;20189;-76
2021/12/04 05:11:20;;;;;;;3.40;3.10;;;2.50;99.90;;;;;;5014057;28;20178;-77
2021/12/04 05:13:46;;;;;;;3.50;3.20;;;2.60;99.90;;;;;;4993704;28;20663;-77
2021/12/04 05:16:17;;;;;;;2.80;2.60;;;2.60;99.90;;;;;;4997381;28;20187;-77
2021/12/04 05:19:24;;;;;;;2.73;2.53;;;2.70;99.90;;;;;;4998757;28;20183;-74
2021/12/04 05:21:36;;;;;;;3.07;2.87;;;2.60;99.90;;;;;;4991650;28;20210;-77
2021/12/04 05:24:02;;;;;;;2.83;2.63;;;2.70;99.90;;;;;;4992326;28;20687;-78
2021/12/04 05:26:29;;;;;;;3.17;2.83;;;2.70;99.90;;;;;;4997147;28;20268;-77
2021/12/04 05:28:58;;;;;;;3.53;2.60;;;2.70;99.90;;;;;;4980077;28;20593;-76
2021/12/04 05:31:24;;;;;;;3.27;2.67;;;2.70;99.90;;;;;;5002179;28;20232;-78
2021/12/04 05:33:50;;;;;;;2.60;2.40;;;2.70;99.90;;;;;;4994018;28;20198;-77
2021/12/04 05:36:17;;;;;;;3.17;2.77;;;2.70;99.90;;;;;;4975946;28;20185;-75
2021/12/04 05:38:43;;;;;;;2.80;2.60;;;2.80;99.90;;;;;;4996857;28;20182;-74
2021/12/04 05:41:09;;;;;;;2.57;2.33;;;2.80;99.90;;;;;;4993904;28;20188;-76
2021/12/04 05:43:36;;;;;;;2.30;2.10;;;2.80;99.90;;;;;;4999953;28;20213;-77
2021/12/04 05:46:15;;;;;;;2.17;2.00;;;2.80;99.90;;;;;;4997595;28;20191;-76
2021/12/04 05:48:47;;;;;;;1.93;1.73;;;2.80;99.90;;;;;;5000557;28;20190;-75
2021/12/04 05:53:55;;;;;;;2.40;2.20;;;2.90;99.90;;;;;;4997515;28;20291;-78
2021/12/04 05:56:23;;;;;;;2.13;1.93;;;2.90;99.90;;;;;;4995283;28;20206;-78
2021/12/04 05:58:50;;;;;;;2.63;2.43;;;2.90;99.90;;;;;;4995777;28;20234;-74
2021/12/04 06:01:18;;;;;;;2.07;1.97;;;2.90;99.90;;;;;;4992399;28;20181;-76
2021/12/04 06:03:44;;;;;;;2.20;2.00;;;2.90;99.90;;;;;;4999951;28;20238;-77
2021/12/04 06:06:09;;;;;;;1.97;1.87;;;3.00;99.90;;;;;;4998554;28;20666;-75
2021/12/04 06:08:35;;;;;;;2.20;2.00;;;3.00;99.90;;;;;;4995976;28;20203;-75
2021/12/04 06:11:01;;;;;;;2.33;2.17;;;3.00;99.90;;;;;;4980304;28;20183;-75
2021/12/04 06:13:27;;;;;;;2.70;1.90;;;3.00;99.90;;;;;;4991981;28;20196;-76
2021/12/04 06:15:54;;;;;;;2.47;2.27;;;3.00;99.90;;;;;;4992353;28;20202;-74
2021/12/04 06:18:21;;;;;;;2.30;2.10;;;3.00;99.90;;;;;;4992390;28;20644;-77
2021/12/04 06:23:32;;;;;;;2.60;2.40;;;3.00;99.90;;;;;;4996401;28;20230;-77
2021/12/04 06:25:59;;;;;;;2.70;2.50;;;3.00;99.90;;;;;;4998470;28;20266;-76
2021/12/04 06:28:24;;;;;;;2.83;2.57;;;3.10;99.90;;;;;;5002871;28;20181;-76
2021/12/04 06:30:52;;;;;;;2.60;2.40;;;3.10;99.90;;;;;;5000861;28;20183;-77
2021/12/04 06:33:18;;;;;;;2.97;2.20;;;3.00;99.90;;;;;;5020998;28;20206;-76
2021/12/04 06:35:46;;;;;;;2.40;2.20;;;3.00;99.90;;;;;;5017422;28;20175;-76
2021/12/04 06:38:14;;;;;;;2.60;2.40;;;3.10;99.90;;;;;;5036531;28;20174;-76
2021/12/04 06:40:40;;;;;;;2.90;2.70;;;3.10;99.90;;;;;;5018709;28;20175;-76
2021/12/04 06:43:07;;;;;;;2.53;2.33;;;3.00;99.90;;;;;;5019342;28;20554;-76
2021/12/04 06:45:36;;;;;;;2.40;2.20;;;3.10;99.90;;;;;;5000493;28;20190;-76
2021/12/04 06:48:13;;;;;;;2.07;1.87;;;3.20;99.90;;;;;;5000094;28;20177;-76
2021/12/04 06:50:52;;;;;;;1.97;1.87;;;3.20;99.90;;;;;;5012087;28;20650;-76
2021/12/04 06:55:47;;;;;;;2.10;2.00;;;3.30;99.90;;;;;;5009067;28;20179;-75
2021/12/04 06:58:13;;;;;;;1.90;1.80;;;3.40;99.90;;;;;;5014785;28;20623;-77
2021/12/04 07:00:39;;;;;;;2.17;1.97;;;3.40;99.90;;;;;;5016732;28;20254;-76
2021/12/04 07:03:05;;;;;;;3.17;2.43;;;3.40;99.90;;;;;;5016812;28;20199;-76
2021/12/04 07:05:31;;;;;;;2.37;2.17;;;3.20;99.90;;;;;;5018587;28;20192;-76
2021/12/04 07:07:57;;;;;;;2.23;2.03;;;3.40;99.90;;;;;;5015091;28;20164;-76
2021/12/04 07:10:23;;;;;;;2.00;1.90;;;3.50;99.90;;;;;;5018881;28;20202;-76
2021/12/04 07:12:48;;;;;;;2.30;2.10;;;4.20;99.90;;;;;;5019239;28;20195;-77
2021/12/04 07:15:14;;;;;;;1.83;1.73;;;3.70;99.90;;;;;;4999417;28;20255;-75
2021/12/04 07:17:40;;;;;;;1.53;1.43;;;3.60;99.90;;;;;;5018034;28;20174;-76
2021/12/04 07:20:07;;;;;;;2.40;2.20;;;3.90;99.90;;;;;;5016246;28;20187;-77
2021/12/04 07:22:34;;;;;;;2.13;1.97;;;3.70;99.90;;;;;;4999760;28;20717;-76
2021/12/04 07:25:00;;;;;;;2.20;1.80;;;4.20;99.90;;;;;;4997435;28;20176;-75
2021/12/04 07:27:28;;;;;;;1.80;1.70;;;3.70;99.90;;;;;;5017229;28;20266;-76
2021/12/04 07:29:55;;;;;;;2.87;2.30;;;3.80;99.90;;;;;;5020126;28;20183;-77
2021/12/04 07:32:20;;;;;;;2.40;2.20;;;3.80;99.90;;;;;;5016902;28;20214;-77
2021/12/04 07:34:46;;;;;;;1.87;1.67;;;3.80;99.90;;;;;;5015343;28;20204;-78
2021/12/04 07:37:12;;;;;;;2.40;2.20;;;4.10;99.90;;;;;;4999417;28;20175;-76
2021/12/04 07:39:38;;;;;;;2.10;1.90;;;3.80;99.90;;;;;;5016911;28;20226;-77
2021/12/04 07:42:04;;;;;;;2.37;2.17;;;3.90;99.90;;;;;;5033426;28;20613;-75
2021/12/04 07:44:30;;;;;;;2.17;1.97;;;3.90;99.90;;;;;;5035358;28;20264;-76
2021/12/04 07:46:57;;;;;;;2.23;2.03;;;4.20;99.90;;;;;;5016691;28;20204;-77
2021/12/04 07:49:23;;;;;;;1.80;1.70;;;4.00;99.90;;;;;;5016464;28;20194;-77
2021/12/04 07:51:50;;;;;;;1.90;1.70;;;3.90;99.90;;;;;;5035190;28;20221;-77
2021/12/04 07:54:16;;;;;;;1.40;1.30;;;4.00;99.90;;;;;;5035234;28;20277;-75
2021/12/04 07:56:42;;;;;;;1.33;1.23;;;4.10;99.90;;;;;;5030761;28;20182;-76
2021/12/04 07:59:52;;;;;;;1.20;1.10;;;4.20;99.90;;;;;;5034753;28;20183;-77
2021/12/04 08:02:17;;;;;;;1.43;1.30;;;4.20;99.90;;;;;;5034532;28;20679;-77
2021/12/04 08:04:43;;;;;;;0.90;0.90;;;4.20;99.90;;;;;;5034828;28;20177;-76
2021/12/04 08:07:09;;;;;;;1.37;1.00;;;4.30;99.90;;;;;;5016905;28;20258;-77
2021/12/04 08:09:34;;;;;;;1.20;1.10;;;4.40;99.90;;;;;;5016677;28;20206;-77
2021/12/04 08:12:00;;;;;;;0.80;0.63;;;4.40;99.90;;;;;;5016464;28;20273;-76
2021/12/04 08:14:26;;;;;;;0.60;0.60;;;4.40;99.90;;;;;;5016582;28;20218;-76
2021/12/04 08:16:51;;;;;;;0.70;0.67;;;4.60;99.90;;;;;;5017038;28;20668;-76
2021/12/04 08:19:17;;;;;;;0.80;0.80;;;4.70;99.90;;;;;;5025736;28;20650;-76
2021/12/04 08:21:42;;;;;;;2.00;1.07;;;4.80;99.90;;;;;;5033890;28;20638;-76
2021/12/04 08:24:09;;;;;;;1.40;0.73;;;4.80;99.90;;;;;;5016856;28;20176;-77
2021/12/04 08:26:36;;;;;;;1.00;0.80;;;4.80;99.90;;;;;;5034500;28;20167;-78
2021/12/04 08:29:03;;;;;;;1.80;0.97;;;5.00;99.90;;;;;;5034790;28;20219;-77
2021/12/04 08:31:29;;;;;;;0.87;0.70;;;5.10;99.90;;;;;;5034994;28;20175;-78
2021/12/04 08:33:54;;;;;;;1.83;0.50;;;5.10;99.90;;;;;;5035487;28;20198;-77
2021/12/04 08:36:21;;;;;;;1.03;0.80;;;5.20;99.90;;;;;;5034863;28;20257;-76
2021/12/04 08:38:47;;;;;;;1.40;1.10;;;5.20;99.90;;;;;;5027590;28;20259;-75
2021/12/04 08:41:15;;;;;;;0.90;0.60;;;5.30;99.90;;;;;;5014328;28;20234;-76
2021/12/04 08:43:41;;;;;;;1.00;0.80;;;5.30;99.90;;;;;;5013430;28;20208;-77
2021/12/04 08:46:07;;;;;;;1.13;0.90;;;5.40;99.90;;;;;;5023909;28;20234;-76
2021/12/04 08:48:33;;;;;;;0.60;0.60;;;5.40;99.90;;;;;;5016305;28;20183;-77
2021/12/04 08:51:00;;;;;;;0.60;0.60;;;5.50;99.90;;;;;;5035592;28;20193;-78
2021/12/04 08:53:26;;;;;;;0.50;0.50;;;5.50;99.90;;;;;;5036238;28;20214;-77
2021/12/04 08:55:52;;;;;;;0.50;0.50;;;5.60;99.90;;;;;;5034951;28;20194;-76
2021/12/04 08:58:19;;;;;;;0.53;0.47;;;5.60;99.90;;;;;;5033796;28;20280;-78
2021/12/04 09:00:54;;;;;;;0.80;0.57;;;5.60;99.90;;;;;;5036251;28;20195;-76
2021/12/04 09:03:26;;;;;;;4.57;0.80;;;5.70;99.90;;;;;;5023498;28;20259;-77
2021/12/04 09:05:53;;;;;;;3.17;0.87;;;5.70;99.90;;;;;;5016194;28;20544;-76
2021/12/04 09:08:22;;;;;;;1.23;1.10;;;5.40;99.90;;;;;;5013454;28;20887;-77
2021/12/04 09:10:49;;;;;;;0.60;0.60;;;5.70;99.90;;;;;;5016189;28;20199;-77
2021/12/04 09:13:16;;;;;;;0.63;0.57;;;5.90;99.90;;;;;;5023144;28;20288;-76
2021/12/04 09:15:42;;;;;;;0.50;0.40;;;5.90;99.90;;;;;;5001133;28;20663;-78
2021/12/04 09:18:08;;;;;;;0.70;0.57;;;5.90;99.90;;;;;;5014850;28;20177;-77
2021/12/04 09:20:33;;;;;;;1.33;0.43;;;6.00;99.90;;;;;;5014528;28;20197;-77
2021/12/04 09:23:00;;;;;;;1.30;0.60;;;6.10;99.90;;;;;;5012665;28;20218;-78
2021/12/04 09:25:28;;;;;;;0.50;0.50;;;6.10;99.90;;;;;;4994287;28;20547;-78
2021/12/04 09:36:10;;;;;;;1.60;1.47;;;6.20;99.90;;;;;;5015274;28;20182;-77
2021/12/04 10:33:16;;;;;;;1.20;1.10;;;6.90;99.90;;;;;;5029169;28;20704;-79
2021/12/04 10:35:42;;;;;;;0.87;0.63;;;6.90;99.90;;;;;;5020722;28;20177;-78
2021/12/04 10:38:15;;;;;;;1.03;0.73;;;6.90;99.90;;;;;;5023447;28;20652;-79
2021/12/04 10:40:44;;;;;;;2.40;0.83;;;6.90;99.90;;;;;;5041838;28;20160;-79
2021/12/04 10:43:14;;;;;;;0.70;0.70;;;6.90;99.90;;;;;;5024942;28;20206;-79
2021/12/04 10:45:49;;;;;;;3.63;2.30;;;7.00;99.90;;;;;;5044276;28;20168;-78
2021/12/04 10:48:18;;;;;;;2.37;1.97;;;7.10;99.90;;;;;;5045117;28;20181;-79
2021/12/04 10:53:22;;;;;;;0.77;0.63;;;7.00;99.90;;;;;;5008577;28;20204;-79
2021/12/04 11:37:11;;;;;;;0.90;0.90;;;7.00;99.90;;;;;;5037301;28;20179;-78
2021/12/04 11:42:28;;;;;;;1.70;1.17;;;7.00;99.90;;;;;;5027800;28;20192;-76
2021/12/04 11:45:14;;;;;;;0.60;0.60;;;7.00;99.90;;;;;;5032902;28;20180;-77
2021/12/04 11:47:43;;;;;;;1.50;0.73;;;7.00;99.90;;;;;;5026252;28;20216;-77
2021/12/04 11:50:17;;;;;;;1.40;1.20;;;6.90;99.90;;;;;;5031746;28;20689;-75
2021/12/04 11:52:48;;;;;;;1.40;0.80;;;6.90;99.90;;;;;;5030536;28;20601;-75
2021/12/04 11:55:15;;;;;;;0.90;0.80;;;7.00;99.90;;;;;;5031832;28;20192;-75
2021/12/04 11:57:42;;;;;;;1.27;1.17;;;6.90;99.90;;;;;;5034526;28;20179;-76
2021/12/04 12:00:22;;;;;;;1.10;0.70;;;7.00;99.90;;;;;;5016699;28;20253;-75
2021/12/04 12:02:50;;;;;;;1.37;0.90;;;7.00;99.90;;;;;;5016678;28;20174;-75
2021/12/04 12:05:24;;;;;;;0.80;0.80;;;7.00;99.90;;;;;;5016564;28;20257;-75
2021/12/04 12:07:55;;;;;;;1.90;0.90;;;7.00;99.90;;;;;;5034954;28;20558;-75
2021/12/04 12:10:26;;;;;;;1.07;0.80;;;7.00;99.90;;;;;;5033734;28;20257;-75
2021/12/04 12:23:17;;;;;;;0.50;0.50;;;7.30;99.90;;;;;;5329687;22;20235;-76
2021/12/04 12:25:59;;;;;;;1.30;0.90;;;7.40;99.90;;;;;;5004049;28;20188;-76
2021/12/04 12:37:23;;;;;;;1.20;1.00;;;7.70;99.90;;;;;;5006694;28;20181;-76
2021/12/04 12:40:14;;;;;;;0.83;0.63;;;7.70;99.90;;;;;;5012346;28;20174;-77
2021/12/04 12:42:41;;;;;;;1.00;0.90;;;7.70;99.90;;;;;;4997813;28;20210;-77
2021/12/04 12:45:23;;;;;;;0.90;0.80;;;7.70;99.90;;;;;;5006843;28;20179;-78
2021/12/04 12:47:58;;;;;;;0.83;0.73;;;7.70;99.90;;;;;;4992410;28;20187;-78
2021/12/04 12:50:46;;;;;;;2.40;0.70;;;7.80;99.90;;;;;;4992739;28;20193;-77
2021/12/04 12:53:18;;;;;;;0.87;0.73;;;7.80;99.90;;;;;;5003332;28;20324;-78
2021/12/04 12:55:48;;;;;;;1.10;0.70;;;7.90;99.90;;;;;;5008387;28;20201;-78
2021/12/04 12:58:20;;;;;;;0.93;0.60;;;7.80;99.90;;;;;;5004224;28;20518;-79
2021/12/04 13:12:10;;;;;;;0.57;0.50;;;7.80;99.90;;;;;;5010232;28;20209;-79
2021/12/04 13:14:42;;;;;;;0.60;0.50;;;7.70;99.90;;;;;;4993082;28;20193;-79
2021/12/04 13:17:11;;;;;;;0.57;0.50;;;7.60;99.90;;;;;;5010185;28;20217;-77
2021/12/04 13:19:39;;;;;;;0.20;0.20;;;7.60;99.90;;;;;;4999411;28;20175;-78
2021/12/04 13:22:08;;;;;;;0.57;0.47;;;7.50;99.90;;;;;;4984619;28;20197;-79
2021/12/04 13:24:37;;;;;;;1.50;0.77;;;7.60;99.90;;;;;;4982307;28;20189;-77
2021/12/04 13:29:38;;;;;;;0.67;0.30;;;7.50;99.90;;;;;;5014395;28;20201;-78
2021/12/04 13:32:05;;;;;;;1.33;0.40;;;7.50;99.90;;;;;;5013670;28;20771;-77
2021/12/04 13:34:31;;;;;;;0.30;0.30;;;7.50;99.90;;;;;;4991378;28;20596;-78
2021/12/04 13:36:58;;;;;;;1.07;0.40;;;7.50;99.90;;;;;;4991800;28;20554;-79
2021/12/04 13:39:25;;;;;;;0.50;0.40;;;7.50;99.90;;;;;;5014015;28;20176;-78
2021/12/04 13:41:52;;;;;;;1.50;0.50;;;7.50;99.90;;;;;;4996300;28;20207;-79
2021/12/04 13:44:22;;;;;;;0.30;0.30;;;7.50;99.90;;;;;;4995332;28;20182;-79
2021/12/04 13:46:51;;;;;;;0.93;0.47;;;7.50;99.90;;;;;;5009415;28;20269;-79
2021/12/04 13:49:31;;;;;;;0.57;0.40;;;7.50;99.90;;;;;;5017105;28;20222;-79
2021/12/04 13:52:01;;;;;;;0.70;0.40;;;7.50;99.90;;;;;;4999872;28;20191;-78
2021/12/04 13:54:29;;;;;;;0.30;0.30;;;7.50;99.90;;;;;;4999585;28;20265;-79
2021/12/04 13:56:55;;;;;;;0.97;0.30;;;7.50;99.90;;;;;;4998543;28;20188;-79
2021/12/04 13:59:26;;;;;;;0.30;0.20;;;7.40;99.90;;;;;;4998672;28;20175;-79
2021/12/04 14:01:53;;;;;;;0.90;0.80;;;7.50;99.90;;;;;;4998546;28;20205;-79
2021/12/04 14:04:19;;;;;;;0.43;0.40;;;7.40;99.90;;;;;;5016951;28;20181;-79
2021/12/04 14:07:03;;;;;;;0.30;0.30;;;7.30;99.90;;;;;;4998815;28;20189;-78
2021/12/04 14:09:33;;;;;;;0.60;0.60;;;7.30;99.90;;;;;;5010400;28;20194;-80
2021/12/04 14:11:59;;;;;;;0.30;0.30;;;7.30;99.90;;;;;;4994075;28;20294;-80
2021/12/04 14:14:27;;;;;;;1.80;0.40;;;7.30;99.90;;;;;;4983034;28;20193;-80
2021/12/04 14:16:55;;;;;;;0.47;0.33;;;7.10;99.90;;;;;;4991383;28;20179;-79
2021/12/04 14:19:26;;;;;;;0.37;0.30;;;7.20;99.90;;;;;;5003457;28;20657;-78
2021/12/04 14:22:07;;;;;;;0.90;0.50;;;7.10;99.90;;;;;;5020991;28;20217;-80
2021/12/04 14:24:41;;;;;;;0.70;0.70;;;7.10;99.90;;;;;;4999400;28;20188;-79
2021/12/04 14:27:07;;;;;;;1.10;1.00;;;7.10;99.90;;;;;;5018318;28;20169;-80
2021/12/04 14:29:36;;;;;;;0.40;0.40;;;7.20;99.90;;;;;;5017630;28;20205;-80
2021/12/04 14:32:04;;;;;;;0.30;0.20;;;7.10;99.90;;;;;;5017288;28;20197;-79
2021/12/04 14:34:31;;;;;;;2.43;0.37;;;7.10;99.90;;;;;;4998873;28;20200;-78
2021/12/04 14:37:12;;;;;;;0.80;0.60;;;7.10;99.90;;;;;;4999857;28;20204;-80
2021/12/04 14:39:47;;;;;;;0.73;0.60;;;7.10;99.90;;;;;;5017529;28;20176;-79
2021/12/04 14:42:23;;;;;;;1.70;1.07;;;7.10;99.90;;;;;;5017783;28;20188;-80
2021/12/04 14:44:54;;;;;;;1.20;0.73;;;7.20;99.90;;;;;;5012881;28;20200;-80
2021/12/04 14:47:21;;;;;;;1.50;1.10;;;7.20;99.90;;;;;;4999709;28;20184;-79
2021/12/04 14:49:50;;;;;;;1.27;0.90;;;7.20;99.90;;;;;;5016940;28;20206;-78
2021/12/04 14:52:21;;;;;;;5.40;3.90;;;7.20;99.90;;;;;;4998002;28;20290;-78
2021/12/04 14:54:49;;;;;;;0.40;0.40;;;7.20;99.90;;;;;;5015177;28;20182;-79
2021/12/04 14:57:21;;;;;;;0.73;0.60;;;7.30;99.90;;;;;;5017757;28;20270;-79
2021/12/04 14:59:58;;;;;;;0.50;0.37;;;7.30;99.90;;;;;;5019465;28;20190;-79
2021/12/04 15:02:23;;;;;;;0.40;0.40;;;7.30;99.90;;;;;;5020194;28;20212;-78
2021/12/04 15:04:49;;;;;;;0.30;0.30;;;7.40;99.90;;;;;;5018971;28;20173;-78
2021/12/04 15:07:22;;;;;;;0.63;0.37;;;7.40;99.90;;;;;;5019146;28;20644;-79
2021/12/04 15:09:48;;;;;;;0.50;0.50;;;7.40;99.90;;;;;;5018710;28;20231;-78
2021/12/04 15:12:34;;;;;;;0.73;0.70;;;7.40;99.90;;;;;;5012411;28;20184;-79
2021/12/04 15:15:08;;;;;;;1.60;0.63;;;7.40;99.90;;;;;;5000519;28;20178;-79
2021/12/04 15:17:34;;;;;;;0.57;0.50;;;7.40;99.90;;;;;;5015800;28;20168;-79
2021/12/04 15:20:09;;;;;;;1.77;1.17;;;7.50;99.90;;;;;;5021555;28;20183;-78
2021/12/04 15:22:41;;;;;;;0.70;0.70;;;7.40;99.90;;;;;;5003219;28;20232;-80
2021/12/04 15:25:13;;;;;;;1.00;0.80;;;7.50;99.90;;;;;;5018807;28;20187;-80
2021/12/04 15:27:41;;;;;;;1.57;0.80;;;7.50;99.90;;;;;;5025456;28;20184;-81
2021/12/04 15:30:10;;;;;;;0.97;0.70;;;7.40;99.90;;;;;;5004602;28;20198;-80
2021/12/04 15:32:39;;;;;;;1.20;0.80;;;7.40;99.90;;;;;;5024261;28;20198;-80
2021/12/04 15:35:32;;;;;;;1.20;0.57;;;7.40;99.90;;;;;;5023879;28;20542;-79
2021/12/04 15:38:43;;;;;;;1.13;0.80;;;7.40;99.90;;;;;;5021947;28;20253;-79
2021/12/04 15:43:37;;;;;;;0.57;0.50;;;7.40;99.90;;;;;;5022926;28;20232;-79
2021/12/04 15:46:21;;;;;;;1.53;0.60;;;7.40;99.90;;;;;;5022441;28;20188;-82
2021/12/04 15:49:26;;;;;;;3.90;1.27;;;7.40;99.90;;;;;;5024352;28;20216;-82
2021/12/04 15:55:05;;;;;;;1.07;0.67;;;7.30;99.90;;;;;;5020654;28;20193;-79
2021/12/04 15:57:32;;;;;;;1.43;0.83;;;7.30;99.90;;;;;;5021008;28;20187;-78
2021/12/04 16:00:11;;;;;;;1.13;0.67;;;7.30;99.90;;;;;;5019120;28;20214;-79
2021/12/04 16:02:44;;;;;;;1.43;0.73;;;7.40;99.90;;;;;;5010556;28;20205;-79
2021/12/04 16:05:18;;;;;;;1.60;1.20;;;7.40;99.90;;;;;;5013006;28;20649;-79
2021/12/04 16:07:48;;;;;;;0.87;0.80;;;7.40;99.90;;;;;;5021708;28;20178;-79
2021/12/04 16:10:21;;;;;;;1.30;1.03;;;7.40;99.90;;;;;;5022045;28;20549;-78
2021/12/04 16:12:54;;;;;;;1.03;0.97;;;7.40;99.90;;;;;;5020295;28;20573;-80
2021/12/04 16:15:22;;;;;;;1.33;1.00;;;7.40;99.90;;;;;;5020339;28;20703;-80
2021/12/04 16:17:48;;;;;;;1.27;1.03;;;7.40;99.90;;;;;;5020339;28;20240;-80
2021/12/04 16:20:17;;;;;;;1.10;0.97;;;7.50;99.90;;;;;;5004672;28;20651;-79
2021/12/04 16:22:43;;;;;;;1.17;1.07;;;7.40;99.90;;;;;;5019560;28;20269;-79
2021/12/04 16:25:24;;;;;;;1.63;0.90;;;7.30;99.90;;;;;;5018723;28;20207;-79
2021/12/04 16:30:58;;;;;;;1.87;1.03;;;7.30;99.90;;;;;;4996173;28;20238;-81
2021/12/04 16:36:04;;;;;;;2.20;0.70;;;7.30;99.90;;;;;;5012955;28;20699;-79
2021/12/04 16:38:31;;;;;;;1.23;0.70;;;7.30;99.90;;;;;;5013048;28;20171;-81
2021/12/04 16:40:58;;;;;;;1.80;1.10;;;7.30;99.90;;;;;;5012314;28;20236;-80
2021/12/04 16:43:31;;;;;;;2.90;0.70;;;7.30;99.90;;;;;;4999797;28;20644;-79
2021/12/04 16:45:59;;;;;;;2.43;0.63;;;7.20;99.90;;;;;;4999959;28;20180;-80
2021/12/04 16:48:29;;;;;;;1.17;0.43;;;7.20;99.90;;;;;;5016864;28;20167;-79